Time;durP1;ratioP1;P1;durP2;ratioP2;P2;SDS_P1;SDS_P2;PMS_P1;PMS_P2;Temp;Humidity;BMP_temperature;BMP_pressure;BME280_temperature;BME280_humidity;BME280_pressure;Samples;Min_cycle;Max_cycle;Signal;HPM_P1;HPM_P2
2023/07/29 00:00:42;;;;;;;10.63;4.15;;;;;;;22.19;52.91;101335.34;5073778;28;20032;-56
2023/07/29 00:03:09;;;;;;;14.38;3.75;;;;;;;22.00;53.01;101337.75;5073182;28;20033;-56
2023/07/29 00:05:37;;;;;;;11.88;3.17;;;;;;;22.25;52.66;101331.53;5071722;28;20086;-55
2023/07/29 00:08:04;;;;;;;10.02;3.40;;;;;;;22.40;53.22;101326.09;5073456;28;20021;-49
2023/07/29 00:10:36;;;;;;;11.02;3.95;;;;;;;22.33;52.19;101331.81;5073601;28;20095;-50
2023/07/29 00:13:03;;;;;;;14.68;4.25;;;;;;;21.79;52.91;101334.16;5072594;28;20116;-51
2023/07/29 00:15:30;;;;;;;11.73;3.90;;;;;;;21.83;55.45;101333.34;5072175;28;20085;-48
2023/07/29 00:17:56;;;;;;;12.82;3.60;;;;;;;22.00;54.52;101329.56;5067603;28;20032;-51
2023/07/29 00:20:22;;;;;;;17.10;4.00;;;;;;;21.79;54.11;101326.81;5073132;28;20466;-47
2023/07/29 00:22:54;;;;;;;13.73;4.03;;;;;;;21.26;55.11;101328.75;5072765;28;20056;-49
2023/07/29 00:25:21;;;;;;;13.18;4.28;;;;;;;21.07;56.54;101338.47;5073149;28;20502;-48
2023/07/29 00:27:47;;;;;;;11.90;3.97;;;;;;;21.14;57.55;101332.78;5071696;28;20395;-47
2023/07/29 00:30:14;;;;;;;12.82;3.88;;;;;;;20.22;58.96;101329.41;5072748;28;20047;-47
2023/07/29 00:32:40;;;;;;;11.07;4.05;;;;;;;20.42;58.81;101326.03;5080533;28;20028;-48
2023/07/29 00:35:07;;;;;;;9.32;4.60;;;;;;;20.11;59.30;101327.69;5083638;23;20420;-48
2023/07/29 00:37:33;;;;;;;15.40;4.32;;;;;;;20.41;59.24;101316.22;5071695;28;20508;-52
2023/07/29 00:39:59;;;;;;;14.40;4.43;;;;;;;20.61;58.77;101327.31;5072752;28;20040;-54
2023/07/29 00:42:26;;;;;;;10.05;3.67;;;;;;;20.29;59.51;101322.66;5072782;28;20082;-53
2023/07/29 00:44:52;;;;;;;15.90;4.40;;;;;;;20.58;59.60;101316.94;5070476;28;20507;-49
2023/07/29 00:47:20;;;;;;;12.25;4.07;;;;;;;20.11;61.01;101308.66;5068885;28;20474;-56
2023/07/29 00:49:46;;;;;;;19.25;5.43;;;;;;;19.67;61.31;101312.28;5052917;28;20214;-55
2023/07/29 00:52:13;;;;;;;14.32;4.57;;;;;;;19.76;62.62;101316.16;5072648;28;20056;-58
2023/07/29 00:54:40;;;;;;;13.85;4.35;;;;;;;19.50;62.43;101314.25;5072329;28;20466;-54
2023/07/29 00:57:10;;;;;;;14.35;4.05;;;;;;;19.14;64.24;101305.66;5072633;28;20425;-58
2023/07/29 00:59:36;;;;;;;13.85;4.88;;;;;;;19.36;63.55;101307.53;5068758;28;20040;-57
2023/07/29 01:02:03;;;;;;;11.43;4.22;;;;;;;19.25;64.24;101303.88;5055395;28;20044;-48
2023/07/29 01:04:29;;;;;;;15.10;4.90;;;;;;;18.83;64.88;101311.75;5052984;28;20033;-45
2023/07/29 01:07:03;;;;;;;16.42;4.78;;;;;;;18.74;65.98;101314.03;5061428;28;20047;-45
2023/07/29 01:09:38;;;;;;;14.75;5.05;;;;;;;18.72;66.65;101306.16;5068184;28;20393;-51
2023/07/29 01:12:06;;;;;;;;;;;;;;;18.83;65.74;101311.75;5071642;28;20039;-47
2023/07/29 01:15:03;;;;;;;12.57;4.78;;;;;;;18.73;65.84;101321.38;5072118;28;19921;-51
2023/07/29 01:18:02;;;;;;;15.48;4.60;;;;;;;18.70;66.16;101318.31;5072298;28;20417;-49
2023/07/29 01:20:34;;;;;;;21.50;5.65;;;;;;;18.22;67.72;101317.00;5007640;28;20041;-46
2023/07/29 01:23:00;;;;;;;18.67;4.65;;;;;;;18.33;67.70;101321.53;5009705;28;20128;-48
2023/07/29 01:25:26;;;;;;;18.63;5.03;;;;;;;18.43;67.80;101316.28;5010111;28;20128;-44
2023/07/29 01:27:53;;;;;;;13.52;4.57;;;;;;;18.64;66.28;101316.56;5009703;28;20033;-45
2023/07/29 01:30:26;;;;;;;16.35;4.97;;;;;;;18.50;67.11;101329.66;5008989;28;20048;-45
2023/07/29 01:32:58;;;;;;;18.88;4.70;;;;;;;18.32;67.54;101325.31;5006966;28;20116;-45
2023/07/29 01:35:29;;;;;;;17.27;4.82;;;;;;;18.33;67.58;101326.13;5009541;28;20049;-45
2023/07/29 01:38:00;;;;;;;17.15;4.97;;;;;;;18.42;67.90;101321.91;5009573;28;20112;-45
2023/07/29 01:40:28;;;;;;;14.07;5.18;;;;;;;18.50;67.42;101326.13;5012038;28;20088;-48
2023/07/29 01:42:54;;;;;;;14.95;5.07;;;;;;;18.13;68.32;101323.88;5029709;28;20040;-47
2023/07/29 01:45:25;;;;;;;12.18;4.15;;;;;;;18.26;67.83;101330.84;5030035;28;20120;-53
2023/07/29 01:47:52;;;;;;;18.15;5.38;;;;;;;18.16;67.40;101321.50;5022939;28;20110;-46
2023/07/29 01:50:18;;;;;;;21.85;5.45;;;;;;;18.15;67.78;101325.25;5010596;28;20581;-44
2023/07/29 01:52:45;;;;;;;13.68;4.88;;;;;;;18.09;68.40;101337.06;5060602;28;20116;-45
2023/07/29 01:55:11;;;;;;;17.75;5.38;;;;;;;18.03;68.61;101334.53;5071596;28;20029;-45
2023/07/29 01:57:37;;;;;;;13.95;4.90;;;;;;;18.09;68.16;101341.66;5068803;28;20101;-45
2023/07/29 02:00:04;;;;;;;13.45;4.55;;;;;;;18.31;68.14;101341.78;5070804;28;20109;-46
2023/07/29 02:02:30;;;;;;;15.93;4.25;;;;;;;18.39;66.79;101344.94;5069641;28;20043;-46
2023/07/29 02:04:57;;;;;;;14.80;4.35;;;;;;;18.29;67.76;101355.59;5069657;28;20028;-45
2023/07/29 02:07:26;;;;;;;14.20;4.32;;;;;;;18.26;67.67;101353.34;5070502;28;20104;-48
2023/07/29 02:09:53;;;;;;;12.73;4.30;;;;;;;18.36;67.29;101356.25;5067075;28;20123;-44
2023/07/29 02:12:19;;;;;;;15.65;4.47;;;;;;;18.12;67.74;101352.03;5054445;28;20036;-43
2023/07/29 02:14:45;;;;;;;16.05;3.80;;;;;;;18.17;67.83;101358.38;5071012;28;20036;-42
2023/07/29 02:17:12;;;;;;;18.20;4.57;;;;;;;17.85;68.71;101362.63;5071901;28;20031;-42
2023/07/29 02:19:38;;;;;;;14.35;4.68;;;;;;;18.18;67.67;101370.03;5071427;28;20440;-42
2023/07/29 02:22:04;;;;;;;14.15;3.97;;;;;;;18.40;66.88;101373.66;5072244;28;20484;-43
2023/07/29 02:24:31;;;;;;;15.55;4.70;;;;;;;18.60;65.99;101391.31;5071241;28;20108;-43
2023/07/29 02:26:57;;;;;;;13.35;4.47;;;;;;;18.59;66.21;101385.09;5071738;28;20016;-42
2023/07/29 02:29:24;;;;;;;13.57;4.05;;;;;;;18.78;64.94;101387.59;5071648;28;20079;-44
2023/07/29 02:31:51;;;;;;;15.05;4.80;;;;;;;18.73;64.78;101385.63;5072056;28;20130;-43
2023/07/29 02:34:17;;;;;;;16.70;5.07;;;;;;;18.43;65.99;101383.19;5071174;28;20117;-42
2023/07/29 02:36:45;;;;;;;13.80;4.25;;;;;;;18.34;66.97;101382.78;5059636;28;20060;-44
2023/07/29 02:39:11;;;;;;;15.63;4.63;;;;;;;18.10;67.34;101378.53;5071467;28;20024;-42
2023/07/29 02:41:37;;;;;;;9.27;4.28;;;;;;;17.60;69.65;101379.16;5071353;28;20025;-43
2023/07/29 02:44:06;;;;;;;13.27;4.68;;;;;;;17.55;69.99;101374.47;5071278;28;20028;-43
2023/07/29 02:46:32;;;;;;;18.70;5.35;;;;;;;17.01;71.88;101363.03;5071379;28;20028;-42
2023/07/29 02:48:59;;;;;;;16.85;5.22;;;;;;;16.85;72.55;101377.25;5071681;28;20050;-43
2023/07/29 02:51:25;;;;;;;16.55;4.95;;;;;;;16.67;73.96;101371.91;5067510;28;20051;-43
2023/07/29 02:53:51;;;;;;;14.95;5.13;;;;;;;16.63;74.06;101375.06;5065193;28;20028;-44
2023/07/29 02:56:18;;;;;;;17.77;5.20;;;;;;;16.50;74.62;101380.69;5075057;28;20126;-43
2023/07/29 02:58:44;;;;;;;22.05;5.10;;;;;;;16.37;75.36;101380.88;5075181;28;20377;-42
2023/07/29 03:01:10;;;;;;;20.02;5.75;;;;;;;16.33;75.74;101390.53;5074952;28;20024;-42
2023/07/29 03:03:37;;;;;;;15.75;5.15;;;;;;;16.03;77.71;101385.94;5074665;28;20070;-42
2023/07/29 03:06:06;;;;;;;15.20;5.28;;;;;;;16.02;77.72;101381.59;5075037;28;20029;-43
2023/07/29 03:08:32;;;;;;;20.77;6.30;;;;;;;16.07;77.50;101386.31;5075100;28;20056;-44
2023/07/29 03:10:59;;;;;;;22.48;6.47;;;;;;;15.85;78.58;101388.69;5074887;28;20070;-44
2023/07/29 03:13:25;;;;;;;24.90;6.03;;;;;;;15.71;79.44;101389.91;5074557;28;20032;-42
2023/07/29 03:15:51;;;;;;;22.75;6.38;;;;;;;15.70;80.22;101390.94;5072229;28;20070;-43
2023/07/29 03:18:18;;;;;;;18.98;6.28;;;;;;;15.41;81.76;101396.03;5074432;28;20036;-49
2023/07/29 03:20:44;;;;;;;14.40;6.20;;;;;;;15.48;81.46;101388.69;5074146;28;20031;-49
2023/07/29 03:23:10;;;;;;;23.38;6.32;;;;;;;15.46;81.77;101382.69;5071591;28;20494;-45
2023/07/29 03:25:36;;;;;;;17.63;6.22;;;;;;;15.38;82.33;101385.72;5073459;28;20425;-46
2023/07/29 03:28:03;;;;;;;21.63;6.40;;;;;;;15.28;82.87;101388.91;5073852;28;20436;-46
2023/07/29 03:30:29;;;;;;;20.90;6.15;;;;;;;15.13;83.63;101395.72;5073891;28;20055;-42
2023/07/29 03:32:55;;;;;;;19.42;5.57;;;;;;;15.17;84.14;101397.75;5073399;28;20028;-42
2023/07/29 03:35:21;;;;;;;22.83;5.97;;;;;;;15.27;83.28;101395.38;5073984;28;20048;-43
2023/07/29 03:37:48;;;;;;;17.05;5.70;;;;;;;15.19;83.69;101394.81;5074044;28;20028;-42
2023/07/29 03:40:14;;;;;;;17.65;5.95;;;;;;;15.19;83.88;101392.94;5068599;28;20033;-43
2023/07/29 03:42:40;;;;;;;20.75;5.95;;;;;;;15.16;84.08;101396.09;5061457;28;20033;-43
2023/07/29 03:45:07;;;;;;;28.30;7.13;;;;;;;15.19;83.75;101405.59;5073784;28;20037;-43
2023/07/29 03:47:33;;;;;;;19.25;6.30;;;;;;;14.98;84.96;101404.97;5074365;28;20024;-45
2023/07/29 03:49:59;;;;;;;15.77;5.38;;;;;;;15.04;84.26;101409.47;5073886;28;20025;-42
2023/07/29 03:52:26;;;;;;;15.35;5.47;;;;;;;15.02;84.72;101403.47;5074104;28;20095;-42
2023/07/29 03:54:52;;;;;;;18.58;6.30;;;;;;;14.92;85.38;101405.03;5074088;28;20028;-43
2023/07/29 03:57:18;;;;;;;16.92;6.28;;;;;;;14.99;84.90;101389.59;5073146;28;20031;-43
2023/07/29 03:59:44;;;;;;;21.10;6.15;;;;;;;14.84;85.90;101395.34;5053253;28;20091;-42
2023/07/29 04:02:10;;;;;;;23.38;6.30;;;;;;;14.71;86.73;101408.91;5053852;28;20036;-43
2023/07/29 04:04:37;;;;;;;17.98;5.93;;;;;;;14.63;87.43;101401.13;5067063;28;20074;-42
2023/07/29 04:07:03;;;;;;;18.83;6.15;;;;;;;14.74;86.50;101409.31;5073773;28;20024;-42
2023/07/29 04:09:30;;;;;;;20.67;5.70;;;;;;;14.70;86.31;101412.66;5074099;28;20475;-42
2023/07/29 04:11:56;;;;;;;24.10;6.72;;;;;;;14.65;86.81;101415.19;5056009;28;20029;-43
2023/07/29 04:14:22;;;;;;;25.15;6.30;;;;;;;14.75;86.68;101418.22;5073592;28;20036;-42
2023/07/29 04:16:49;;;;;;;23.92;5.93;;;;;;;14.71;86.85;101419.69;5073610;28;20107;-45
2023/07/29 04:19:15;;;;;;;22.17;6.32;;;;;;;14.68;87.16;101422.84;5073837;28;20036;-42
2023/07/29 04:21:41;;;;;;;20.65;6.35;;;;;;;14.55;87.63;101421.09;5073502;28;20032;-43
2023/07/29 04:24:07;;;;;;;20.55;6.60;;;;;;;14.64;86.85;101422.44;5073201;28;20046;-44
2023/07/29 04:26:34;;;;;;;16.75;6.13;;;;;;;14.59;87.47;101416.88;5073914;28;20108;-43
2023/07/29 04:29:00;;;;;;;20.15;6.18;;;;;;;14.59;87.64;101418.75;5073668;28;20028;-43
2023/07/29 04:31:26;;;;;;;24.95;6.43;;;;;;;14.48;87.81;101422.97;5073646;28;20032;-43
2023/07/29 04:33:52;;;;;;;23.42;6.60;;;;;;;14.49;87.95;101425.47;5072836;28;20098;-43
2023/07/29 04:36:19;;;;;;;15.10;5.15;;;;;;;14.47;88.26;101424.84;5073281;28;20028;-43
2023/07/29 04:38:45;;;;;;;20.63;5.97;;;;;;;14.47;88.04;101429.41;5063963;28;20502;-46
2023/07/29 04:41:11;;;;;;;17.17;5.63;;;;;;;14.52;87.85;101438.50;5052480;28;20029;-43
2023/07/29 04:43:37;;;;;;;17.42;6.10;;;;;;;14.49;87.96;101428.16;5052584;28;20025;-42
2023/07/29 04:46:08;;;;;;;17.63;6.32;;;;;;;14.58;87.64;101441.34;5070877;28;20037;-43
2023/07/29 04:48:34;;;;;;;17.48;5.97;;;;;;;14.56;87.46;101438.06;5072769;28;20085;-42
2023/07/29 04:51:00;;;;;;;18.02;5.97;;;;;;;14.66;87.00;101446.50;5072454;28;20033;-42
2023/07/29 04:53:27;;;;;;;18.48;5.93;;;;;;;14.64;87.25;101445.88;5072272;28;20029;-42
2023/07/29 04:55:53;;;;;;;23.45;6.32;;;;;;;14.46;88.27;101455.50;5072346;28;20028;-43
2023/07/29 04:58:19;;;;;;;22.70;6.68;;;;;;;14.41;89.05;101441.03;5071511;28;20024;-46
2023/07/29 05:00:47;;;;;;;28.00;6.72;;;;;;;14.41;89.40;101447.22;5072531;28;20096;-42
2023/07/29 05:03:13;;;;;;;25.60;6.07;;;;;;;14.46;89.83;101454.66;5072168;28;20032;-44
2023/07/29 05:05:40;;;;;;;21.77;6.63;;;;;;;14.39;90.31;101448.50;5072386;28;20040;-42
2023/07/29 05:08:06;;;;;;;24.27;6.85;;;;;;;14.29;91.03;101443.59;5072383;28;20017;-43
2023/07/29 05:10:32;;;;;;;20.85;6.38;;;;;;;14.26;91.26;101442.13;5072132;28;20051;-41
2023/07/29 05:12:58;;;;;;;20.40;6.93;;;;;;;14.34;91.07;101445.63;5071087;28;20090;-43
2023/07/29 05:15:25;;;;;;;17.35;5.65;;;;;;;14.29;91.11;101450.84;5072269;28;20482;-44
2023/07/29 05:17:51;;;;;;;21.30;6.55;;;;;;;14.36;90.61;101438.16;5070774;28;20539;-43
2023/07/29 05:20:17;;;;;;;18.45;7.05;;;;;;;14.24;91.59;101441.53;5072398;28;20046;-42
2023/07/29 05:22:43;;;;;;;24.38;7.63;;;;;;;14.18;91.69;101437.00;5072056;28;20478;-42
2023/07/29 05:25:10;;;;;;;20.92;6.57;;;;;;;14.17;91.78;101445.31;5071951;28;20589;-43
2023/07/29 05:27:36;;;;;;;16.77;5.93;;;;;;;14.27;90.89;101446.50;5071521;28;20064;-43
2023/07/29 05:30:02;;;;;;;25.00;6.38;;;;;;;14.30;90.78;101452.47;5071899;28;20028;-42
2023/07/29 05:32:29;;;;;;;24.67;6.32;;;;;;;14.23;91.12;101452.53;5071492;28;20024;-42
2023/07/29 05:34:55;;;;;;;25.40;6.50;;;;;;;14.31;90.84;101448.75;5051819;28;20060;-44
2023/07/29 05:37:22;;;;;;;18.65;6.63;;;;;;;14.16;91.14;101457.94;5051885;28;20064;-41
2023/07/29 05:39:48;;;;;;;25.23;6.97;;;;;;;14.13;91.33;101452.16;5071809;28;20056;-42
2023/07/29 05:42:14;;;;;;;24.73;6.20;;;;;;;14.23;90.51;101457.91;5071616;28;20435;-47
2023/07/29 05:44:40;;;;;;;15.73;6.05;;;;;;;14.09;91.32;101454.44;5071911;28;20386;-46
2023/07/29 05:47:07;;;;;;;24.45;7.47;;;;;;;14.13;91.11;101452.16;5071750;28;20024;-44
2023/07/29 05:49:33;;;;;;;16.80;6.05;;;;;;;14.22;90.61;101453.56;5071849;28;20475;-43
2023/07/29 05:51:59;;;;;;;17.02;5.70;;;;;;;14.26;90.62;101449.38;5071654;28;20020;-43
2023/07/29 05:54:26;;;;;;;24.15;6.60;;;;;;;14.29;90.31;101451.66;5069364;28;20070;-43
2023/07/29 05:56:52;;;;;;;21.23;6.60;;;;;;;14.31;90.23;101446.06;5071616;28;20112;-43
2023/07/29 05:59:18;;;;;;;19.52;5.55;;;;;;;14.24;89.83;101455.00;5071395;28;20454;-42
2023/07/29 06:01:44;;;;;;;18.17;6.00;;;;;;;14.41;89.48;101451.78;5071338;28;20471;-44
2023/07/29 06:04:11;;;;;;;19.27;6.40;;;;;;;14.34;89.53;101440.25;5071145;28;20066;-43
2023/07/29 06:06:37;;;;;;;20.73;7.00;;;;;;;14.46;89.20;101443.91;5071412;28;20020;-42
2023/07/29 06:09:03;;;;;;;14.88;5.85;;;;;;;14.35;89.84;101445.41;5070915;28;20033;-43
2023/07/29 06:11:29;;;;;;;18.92;5.57;;;;;;;14.34;89.94;101446.47;5067092;28;20487;-44
2023/07/29 06:13:58;;;;;;;17.45;5.88;;;;;;;14.41;89.02;101441.84;5070672;28;20060;-42
2023/07/29 06:16:25;;;;;;;17.25;6.00;;;;;;;14.47;87.73;101435.63;5061540;28;20083;-41
2023/07/29 06:18:52;;;;;;;16.98;5.25;;;;;;;14.38;87.80;101426.13;5069986;28;20020;-44
2023/07/29 06:21:19;;;;;;;21.10;6.15;;;;;;;14.34;87.63;101427.59;5071242;28;20116;-45
2023/07/29 06:23:46;;;;;;;15.85;5.70;;;;;;;14.36;87.55;101430.06;5071549;28;20474;-44
2023/07/29 06:26:13;;;;;;;16.30;6.10;;;;;;;14.33;87.61;101434.03;5073180;28;20033;-45
2023/07/29 06:28:39;;;;;;;20.58;5.82;;;;;;;14.38;87.19;101436.06;5073618;28;20183;-43
2023/07/29 06:31:05;;;;;;;20.20;6.25;;;;;;;14.36;87.46;101428.19;5080377;23;20041;-42
2023/07/29 06:33:31;;;;;;;18.25;5.55;;;;;;;14.37;87.30;101427.16;5073932;28;20024;-42
2023/07/29 06:35:58;;;;;;;17.15;6.30;;;;;;;14.39;86.94;101426.97;5075338;28;20368;-44
2023/07/29 06:38:24;;;;;;;18.30;5.97;;;;;;;14.29;87.56;101432.81;5074566;28;20511;-44
2023/07/29 06:40:51;;;;;;;17.55;6.03;;;;;;;14.32;87.42;101442.31;5075160;28;20418;-44
2023/07/29 06:43:17;;;;;;;17.40;5.82;;;;;;;14.44;87.13;101443.31;5072846;28;20028;-44
2023/07/29 06:45:44;;;;;;;14.77;5.63;;;;;;;14.43;87.24;101430.84;5073156;28;20072;-44
2023/07/29 06:48:10;;;;;;;19.95;5.65;;;;;;;14.34;88.38;101449.16;5074852;28;20561;-43
2023/07/29 06:50:36;;;;;;;20.75;6.53;;;;;;;14.28;89.09;101450.00;5074599;28;20021;-45
2023/07/29 06:53:03;;;;;;;21.55;6.82;;;;;;;14.27;89.29;101451.06;5074671;28;20028;-45
2023/07/29 06:55:30;;;;;;;22.92;6.38;;;;;;;14.30;89.33;101444.41;5073824;28;20021;-44
2023/07/29 06:57:56;;;;;;;18.00;6.10;;;;;;;14.38;88.35;101447.69;5073724;28;20020;-43
2023/07/29 07:00:22;;;;;;;16.83;6.45;;;;;;;14.23;89.45;101441.75;5073798;28;20028;-42
2023/07/29 07:02:48;;;;;;;18.60;6.18;;;;;;;14.28;89.30;101441.94;5072813;28;20425;-42
2023/07/29 07:05:15;;;;;;;20.13;6.28;;;;;;;14.30;89.03;101447.91;5073185;28;20094;-45
2023/07/29 07:07:42;;;;;;;22.00;6.85;;;;;;;14.26;89.68;101452.06;5074791;28;20493;-45
2023/07/29 07:10:08;;;;;;;25.65;7.35;;;;;;;14.13;90.61;101458.38;5073165;28;20110;-42
2023/07/29 07:12:35;;;;;;;23.50;7.60;;;;;;;14.00;91.52;101451.19;5073020;28;20037;-43
2023/07/29 07:15:01;;;;;;;22.15;7.22;;;;;;;14.03;92.35;101449.09;5072353;28;20032;-44
2023/07/29 07:17:28;;;;;;;25.83;7.00;;;;;;;14.10;92.00;101439.09;5065443;28;20039;-42
2023/07/29 07:19:54;;;;;;;19.85;6.85;;;;;;;13.97;92.63;101448.09;5065815;28;20034;-43
2023/07/29 07:22:20;;;;;;;20.50;7.38;;;;;;;13.90;93.22;101445.44;5065126;28;20029;-43
2023/07/29 07:24:46;;;;;;;18.67;6.38;;;;;;;13.99;92.37;101449.53;5071000;28;20101;-42
2023/07/29 07:27:13;;;;;;;22.15;6.80;;;;;;;13.87;92.96;101448.53;5070004;28;20094;-42
2023/07/29 07:29:39;;;;;;;20.60;6.85;;;;;;;13.86;93.59;101460.34;5067755;28;20048;-41
2023/07/29 07:32:06;;;;;;;24.85;7.13;;;;;;;13.89;93.69;101459.09;5072934;28;20025;-42
2023/07/29 07:34:33;;;;;;;30.23;7.43;;;;;;;13.89;93.78;101457.22;5071010;28;20086;-44
2023/07/29 07:37:00;;;;;;;32.42;7.68;;;;;;;13.92;93.88;101451.41;5058612;28;20518;-44
2023/07/29 07:39:26;;;;;;;23.85;6.50;;;;;;;13.79;94.11;101454.16;5070888;28;20044;-44
2023/07/29 07:41:53;;;;;;;19.15;7.10;;;;;;;13.74;94.19;101457.47;5070782;28;20027;-42
2023/07/29 07:44:19;;;;;;;19.33;7.72;;;;;;;13.58;94.32;101457.09;5072935;28;20071;-43
2023/07/29 07:46:46;;;;;;;22.95;7.28;;;;;;;13.48;94.89;101468.28;5072934;28;20471;-43
2023/07/29 07:49:13;;;;;;;16.95;7.20;;;;;;;13.55;94.87;101468.28;5073008;28;20020;-43
2023/07/29 07:51:39;;;;;;;14.82;6.55;;;;;;;13.45;95.42;101471.41;5071970;28;20028;-43
2023/07/29 07:54:06;;;;;;;13.52;6.40;;;;;;;13.45;95.43;101474.94;5071255;28;20060;-43
2023/07/29 07:56:32;;;;;;;19.10;6.85;;;;;;;13.48;95.92;101473.69;5071904;28;20082;-44
2023/07/29 07:58:58;;;;;;;14.25;7.13;;;;;;;13.43;96.38;101466.22;5071702;28;20449;-41
2023/07/29 08:01:25;;;;;;;14.63;6.68;;;;;;;13.41;96.43;101476.38;5066008;28;20090;-43
2023/07/29 08:03:51;;;;;;;16.95;6.88;;;;;;;13.33;96.55;101463.16;5072392;28;20031;-42
2023/07/29 08:06:17;;;;;;;16.52;7.65;;;;;;;13.30;96.87;101460.88;5072675;28;20035;-43
2023/07/29 08:08:43;;;;;;;15.98;6.82;;;;;;;13.43;96.24;101457.34;5071224;28;20020;-43
2023/07/29 08:11:10;;;;;;;16.08;6.75;;;;;;;13.47;96.38;101461.28;5071345;28;20024;-43
2023/07/29 08:13:36;;;;;;;12.73;5.88;;;;;;;13.47;96.25;101461.28;5071848;28;20032;-42
2023/07/29 08:16:02;;;;;;;20.33;6.35;;;;;;;13.51;96.18;101459.00;5073193;28;20052;-42
2023/07/29 08:18:28;;;;;;;13.27;6.10;;;;;;;13.50;95.91;101444.72;5073221;28;20024;-42
2023/07/29 08:21:02;;;;;;;14.32;6.85;;;;;;;13.43;95.89;101443.91;5072721;28;20070;-44
2023/07/29 08:23:31;;;;;;;18.75;7.97;;;;;;;13.33;97.20;101438.97;5073021;28;20054;-45
2023/07/29 08:26:02;;;;;;;19.98;8.05;;;;;;;13.30;97.31;101455.50;5071135;28;20474;-42
2023/07/29 08:28:32;;;;;;;17.38;7.30;;;;;;;13.41;96.42;101449.50;5072248;28;20123;-42
2023/07/29 08:30:59;;;;;;;15.77;6.75;;;;;;;13.44;95.47;101443.72;5066510;28;20048;-43
2023/07/29 08:33:26;;;;;;;20.85;7.65;;;;;;;13.26;95.87;101437.31;5060810;28;20028;-42
2023/07/29 08:35:53;;;;;;;14.93;6.38;;;;;;;13.26;95.78;101454.25;5070999;28;20154;-42
2023/07/29 08:38:20;;;;;;;13.15;6.82;;;;;;;13.25;95.87;101447.25;5072200;28;20027;-48
2023/07/29 08:40:56;;;;;;;17.60;6.80;;;;;;;13.35;94.78;101444.97;5070954;28;20020;-48
2023/07/29 08:43:32;;;;;;;15.80;6.75;;;;;;;13.31;94.97;101448.25;5072623;28;20016;-48
2023/07/29 08:45:59;;;;;;;14.30;7.22;;;;;;;13.19;96.38;101439.97;5071937;28;20024;-48
2023/07/29 08:48:42;;;;;;;15.68;7.28;;;;;;;13.14;96.12;101435.22;5072786;28;20073;-48
2023/07/29 08:51:10;;;;;;;21.40;6.43;;;;;;;13.17;95.84;101434.81;5070511;28;20383;-48
2023/07/29 08:53:38;;;;;;;17.23;6.75;;;;;;;13.25;95.68;101431.09;5070280;28;20539;-48
2023/07/29 08:56:05;;;;;;;15.07;6.97;;;;;;;13.22;95.64;101436.91;5070643;28;20078;-48
2023/07/29 08:58:33;;;;;;;14.68;7.13;;;;;;;13.26;95.51;101431.94;5070950;28;20524;-48
2023/07/29 09:01:00;;;;;;;18.20;6.90;;;;;;;13.21;95.47;101432.56;5071131;28;20047;-48
2023/07/29 09:03:26;;;;;;;12.95;6.47;;;;;;;13.32;94.81;101423.03;5064325;28;20581;-48
2023/07/29 09:05:53;;;;;;;16.92;6.70;;;;;;;13.18;95.37;101423.03;5077400;23;20557;-48
2023/07/29 09:08:21;;;;;;;13.30;5.95;;;;;;;13.14;96.22;101429.84;5071428;28;20024;-49
2023/07/29 09:10:47;;;;;;;11.85;6.43;;;;;;;13.26;95.19;101422.00;5069131;28;20056;-48
2023/07/29 09:13:13;;;;;;;11.52;6.25;;;;;;;13.13;96.03;101420.13;5070820;28;20036;-48
2023/07/29 09:15:42;;;;;;;11.98;5.88;;;;;;;13.23;95.47;101414.38;5070378;28;20391;-48
2023/07/29 09:18:16;;;;;;;12.52;6.40;;;;;;;13.10;96.40;101408.97;5071439;28;20029;-48
2023/07/29 09:20:42;;;;;;;12.18;6.50;;;;;;;13.02;96.71;101412.72;5070996;28;20487;-48
2023/07/29 09:23:10;;;;;;;13.65;5.90;;;;;;;13.11;96.58;101416.84;5070484;28;20044;-48
2023/07/29 09:25:37;;;;;;;12.82;6.18;;;;;;;13.13;96.51;101416.63;5069992;28;20051;-48
2023/07/29 09:28:14;;;;;;;13.32;6.43;;;;;;;12.98;97.67;101414.16;5070884;28;20150;-48
2023/07/29 09:30:45;;;;;;;15.52;6.32;;;;;;;13.04;97.06;101418.69;5068270;28;20494;-48
2023/07/29 09:33:12;;;;;;;13.65;7.05;;;;;;;13.05;96.80;101398.88;5053613;28;20040;-48
2023/07/29 09:35:39;;;;;;;13.77;6.65;;;;;;;13.06;96.94;101405.06;5071107;28;20162;-48
2023/07/29 09:38:06;;;;;;;13.88;6.78;;;;;;;13.00;97.19;101400.53;5070852;28;20162;-48
2023/07/29 09:40:37;;;;;;;13.15;5.70;;;;;;;12.98;97.12;101410.63;5069598;28;20109;-48
2023/07/29 09:43:05;;;;;;;8.20;5.65;;;;;;;13.05;96.83;101398.03;5070732;28;20032;-48
2023/07/29 09:45:35;;;;;;;16.10;6.70;;;;;;;12.86;97.96;101403.19;5071678;28;20012;-48
2023/07/29 09:48:02;;;;;;;12.82;5.78;;;;;;;12.88;98.42;101409.22;5069757;28;20090;-48
2023/07/29 09:50:29;;;;;;;11.60;5.78;;;;;;;13.01;96.99;101407.53;5071572;28;20100;-48
2023/07/29 09:53:00;;;;;;;11.55;6.30;;;;;;;12.84;98.91;101418.72;5070183;28;20028;-48
2023/07/29 09:55:27;;;;;;;10.70;5.65;;;;;;;13.00;98.25;101422.84;5068657;28;20028;-48
2023/07/29 09:58:03;;;;;;;10.55;6.25;;;;;;;12.95;98.39;101420.78;5070188;28;20463;-48
2023/07/29 10:00:31;;;;;;;10.50;5.95;;;;;;;13.01;97.94;101412.91;5067458;28;20478;-48
2023/07/29 10:02:58;;;;;;;12.60;6.57;;;;;;;12.93;98.35;101412.06;5068177;28;20056;-48
2023/07/29 10:05:29;;;;;;;15.52;6.75;;;;;;;12.95;98.47;101412.72;5070241;28;20032;-49
2023/07/29 10:07:56;;;;;;;10.85;6.15;;;;;;;12.90;98.26;101417.88;5070310;28;20109;-49
2023/07/29 10:10:23;;;;;;;9.55;5.43;;;;;;;12.93;97.69;101412.06;5070450;28;20032;-48
2023/07/29 10:12:50;;;;;;;11.98;7.03;;;;;;;12.81;98.44;101413.75;5069280;28;20021;-49
2023/07/29 10:15:17;;;;;;;10.15;5.85;;;;;;;12.88;98.25;101419.97;5070000;28;20099;-48
2023/07/29 10:17:45;;;;;;;9.90;5.50;;;;;;;12.90;97.62;101414.38;5071224;28;20421;-49
2023/07/29 10:20:12;;;;;;;8.77;6.00;;;;;;;12.89;98.11;101416.22;5071377;28;20028;-48
2023/07/29 10:22:40;;;;;;;10.93;6.53;;;;;;;12.72;99.64;101419.53;5070971;28;20033;-48
2023/07/29 10:25:15;;;;;;;8.90;5.80;;;;;;;12.80;99.44;101428.22;5069143;28;20127;-48
2023/07/29 10:27:48;;;;;;;8.18;5.25;;;;;;;12.95;98.78;101419.97;5066569;28;20032;-46
2023/07/29 10:30:15;;;;;;;10.32;6.28;;;;;;;12.91;99.45;101424.09;5065822;28;20028;-47
2023/07/29 10:32:45;;;;;;;8.73;5.90;;;;;;;12.94;99.24;101421.81;5059402;28;20024;-48
2023/07/29 10:35:18;;;;;;;9.63;6.05;;;;;;;13.05;98.58;101419.53;5070372;28;20032;-48
2023/07/29 10:37:45;;;;;;;9.73;6.20;;;;;;;12.98;98.28;101424.91;5070043;28;20020;-47
2023/07/29 10:40:12;;;;;;;15.38;7.32;;;;;;;12.94;98.35;101415.63;5070166;28;20033;-47
2023/07/29 10:43:03;;;;;;;9.77;6.63;;;;;;;13.02;98.29;101420.75;5068552;28;20111;-48
2023/07/29 10:45:41;;;;;;;9.82;5.97;;;;;;;13.06;97.83;101416.63;5068834;28;20398;-47
2023/07/29 10:48:11;;;;;;;7.88;6.32;;;;;;;13.14;97.19;101413.72;5070180;28;20088;-47
2023/07/29 10:50:37;;;;;;;9.93;6.40;;;;;;;13.09;97.00;101412.69;5068994;28;20119;-48
2023/07/29 10:53:04;;;;;;;16.17;7.22;;;;;;;12.97;97.60;101401.75;5069454;28;20028;-48
2023/07/29 10:55:33;;;;;;;11.23;6.07;;;;;;;13.03;97.72;101411.66;5071171;28;20443;-48
2023/07/29 10:58:13;;;;;;;10.93;5.65;;;;;;;13.09;97.47;101404.63;5068064;28;20028;-48
2023/07/29 11:00:42;;;;;;;11.68;6.32;;;;;;;13.04;97.45;101409.81;5067679;28;20548;-48
2023/07/29 11:03:08;;;;;;;8.73;5.43;;;;;;;13.03;97.37;101413.53;5054553;28;20703;-47
2023/07/29 11:05:50;;;;;;;8.85;5.90;;;;;;;13.07;97.54;101412.09;5068728;28;20052;-47
2023/07/29 11:08:36;;;;;;;7.78;5.50;;;;;;;12.98;98.02;101416.84;5066601;28;20032;-47
2023/07/29 11:11:06;;;;;;;9.32;5.38;;;;;;;12.93;98.51;101419.31;5070039;28;20108;-48
2023/07/29 11:13:35;;;;;;;7.97;4.88;;;;;;;13.02;98.46;101423.47;5071360;28;20111;-47
2023/07/29 11:16:03;;;;;;;10.82;6.03;;;;;;;12.89;99.39;101426.97;5072587;28;20036;-48
2023/07/29 11:18:34;;;;;;;8.48;6.00;;;;;;;12.94;98.95;101426.38;5073667;28;20032;-48